CYLW/YLW METAR and TAF weather

Enter ICAO airport designator
Station Type Date Time Source
CYLW METAR 2021/07/27 22:00 UTC NOAA

CYLW 272200Z AUTO 34016KT 1 3/4SM HZ FEW024 OVC031 30/08 A2994 RMK SLP135 DENSITY ALT 3400FT


Station Type Date Time Source
CYLW Decoded METAR 2021/07/27 22:00 UTC NOAA

Kelowna Airport, Canada (CYLW) 49-58N 119-23W 430M
Jul 27, 2021 - 06:00 PM EDT / 2021.07.27 2200 UTC
Wind: from the NNW (340 degrees) at 18 MPH (16 KT):0
Visibility: 1 3/4 mile(s):0
Sky conditions: overcast
Weather: haze
Temperature: 86 F (30 C)
Dew Point: 46 F (8 C)
Relative Humidity: 25%
Pressure (altimeter): 29.94 in. Hg (1013 hPa)
ob: CYLW 272200Z AUTO 34016KT 1 3/4SM HZ FEW024 OVC031 30/08 A2994 RMK SLP135 DENSITY ALT 3400FT
cycle: 22

Station Type Date Time Source
CYLW TAF 2021/07/27 21:09 UTC NOAA

TAF
AMD TAF
AMD CYLW 272107Z 2721/2807 33012KT P6SM SCT050
TEMPO 2721/2807 2SM FU BKN050
RMK FCST BASED ON AUTO OBS. NXT FCST BY 280100Z

Example: see airport list